YTEF/TEF METAR and TAF weather

Enter ICAO airport designator
Station Type Date Time Source
YTEF METAR 2019/02/16 03:00 UTC NOAA

YTEF 160300Z AUTO 04012KT 010V080 9999 // NCD 41/04 Q1012


Station Type Date Time Source
YTEF Decoded METAR 2019/02/16 03:00 UTC NOAA

Station name not available
Feb 15, 2019 - 10:00 PM EST / 2019.02.16 0300 UTC
Wind: from the NE (040 degrees) at 14 MPH (12 KT) (direction variable):0
Visibility: greater than 7 mile(s):0
Temperature: 105 F (41 C)
Dew Point: 39 F (4 C)
Relative Humidity: 10%
Pressure (altimeter): 29.88 in. Hg (1012 hPa)
ob: YTEF 160300Z AUTO 04012KT 010V080 9999 // NCD 41/04 Q1012
cycle: 3

Station Type Date Time Source
YTEF TAF 2017/06/24 02:03 UTC NOAA

TAF TAF YTEF 240051Z 2402/2414 12005KT CAVOK
FM240500 33005KT 9999 -SHRA SCT060 BKN100


Example: see airport list